Cleveland Burke Lakefront Airport

Airport
ICAO code: 
KBKL
Summary
ICAO Region: 
NAM
Territory: 
Location: 
Cleveland, Ohio,
Coordinates: 
Aerial View: 
41° 31' 21.055" N, 81° 40' 9.083" W
Airport BS: 
Bird Strike
Airport RE: 
Landing on Contaminated Runways
Metar
Observation
KBKL 070853Z 23016G24KT 10SM FEW035 BKN045 M02/M07 A3017 RMK AO2 SNB29E38 SLP221 P0000 60000 T10171067 53020
Station
Cleveland, Burke Lakefront Airport
Date/Time
2021-12-07 08:53:00
Wind direction
230°
Wind speed
16 kts
Lowest cloud amount
few clouds
Temperature
-1.7°C
Dew point
-6.7°C
Humidity
68%
Weather condition
n/a

Description

Cleveland Burke Lakefront Airport is a public use airport situated on the shore of Lake Erie, in the northeast part of downtown Cleveland, in Cuyahoga County, Ohio.

Climatology

Humid continental climate (Köppen climate classification Dfa) - characterized by four seasons: cold, windy, snowy winters, mild springs, hot, humid summers, and crisp and relatively short autumns. Precipitation reaches its lowest in January and February and peaks in summer and latter half of spring.

Runways

Designator Length Width Surface Rops
06R/24L 1584 30 ASP Yes/Yes
06L/24R 1889 46 ASP Yes/Yes
Airport map: 
Aerial View: 

SKYbrary Partners:

Safety knowledge contributed by: